createdAt,value
2019-02-03T00:01:41.159Z,2.50
2019-02-03T00:04:07.441Z,2.40
2019-02-03T00:06:33.621Z,2.60
2019-02-03T00:08:59.871Z,2.60
2019-02-03T00:11:25.958Z,2.60
2019-02-03T00:13:52.132Z,2.50
2019-02-03T00:16:18.216Z,2.60
2019-02-03T00:18:45.030Z,2.60
2019-02-03T00:21:11.361Z,2.60
2019-02-03T00:23:37.584Z,2.50
2019-02-03T00:26:04.773Z,2.50
2019-02-03T00:28:30.956Z,2.40
2019-02-03T00:30:57.136Z,2.20
2019-02-03T00:33:23.444Z,2.30
2019-02-03T00:35:49.508Z,2.40
2019-02-03T00:38:23.231Z,2.50
2019-02-03T00:40:44.511Z,2.40
2019-02-03T00:43:10.699Z,2.60
2019-02-03T00:45:36.776Z,2.60
2019-02-03T00:48:03.344Z,2.60
2019-02-03T00:50:29.523Z,2.60
2019-02-03T00:52:55.587Z,2.60
2019-02-03T00:55:21.770Z,2.50
2019-02-03T00:57:47.949Z,2.50
2019-02-03T01:00:15.807Z,2.50
2019-02-03T01:02:42.095Z,2.50
2019-02-03T01:05:11.776Z,2.60
2019-02-03T01:07:52.404Z,2.60
2019-02-03T01:10:20.891Z,2.80
2019-02-03T01:12:47.155Z,2.70
2019-02-03T01:15:13.645Z,2.70
2019-02-03T01:17:39.711Z,2.70
2019-02-03T01:20:15.003Z,2.70
2019-02-03T01:22:41.069Z,2.80
2019-02-03T01:25:10.255Z,2.80
2019-02-03T01:27:36.635Z,2.80
2019-02-03T01:30:06.120Z,2.90
2019-02-03T01:32:32.190Z,2.90
2019-02-03T01:34:58.384Z,2.90
2019-02-03T01:37:24.454Z,3.00
2019-02-03T01:39:50.639Z,2.90
2019-02-03T01:42:16.807Z,2.90
2019-02-03T01:44:43.107Z,2.90
2019-02-03T01:47:09.271Z,2.80
2019-02-03T01:49:35.393Z,2.80
2019-02-03T01:52:01.555Z,2.70
2019-02-03T01:54:27.644Z,2.60
2019-02-03T01:56:53.809Z,2.50
2019-02-03T01:59:19.991Z,2.50
2019-02-03T02:01:46.464Z,2.60
2019-02-03T02:04:12.639Z,2.70
2019-02-03T02:06:38.718Z,2.70
2019-02-03T02:09:06.111Z,2.60
2019-02-03T02:11:32.187Z,2.70
2019-02-03T02:13:58.283Z,2.70
2019-02-03T02:16:24.452Z,2.60
2019-02-03T02:18:50.521Z,2.60
2019-02-03T02:21:16.691Z,2.50
2019-02-03T02:23:42.762Z,2.50
2019-02-03T02:26:08.853Z,2.50
2019-02-03T02:28:35.095Z,2.40
2019-02-03T02:31:01.188Z,2.50
2019-02-03T02:33:27.363Z,2.50
2019-02-03T02:35:53.536Z,2.70
2019-02-03T02:38:20.000Z,2.70
2019-02-03T02:40:46.075Z,2.60
2019-02-03T02:43:12.234Z,2.60
2019-02-03T02:45:38.312Z,2.70
2019-02-03T02:48:04.702Z,2.60
2019-02-03T02:50:36.889Z,2.60
2019-02-03T02:53:03.342Z,2.60
2019-02-03T02:55:29.946Z,2.60
2019-02-03T02:57:56.212Z,2.60
2019-02-03T03:00:24.002Z,2.60
2019-02-03T03:02:50.362Z,2.60
2019-02-03T03:05:16.745Z,2.50
2019-02-03T03:07:43.024Z,2.60
2019-02-03T03:10:29.014Z,2.40
2019-02-03T03:12:55.185Z,2.40
2019-02-03T03:15:21.368Z,2.50
2019-02-03T03:17:47.947Z,2.40
2019-02-03T03:20:16.138Z,2.50
2019-02-03T03:22:42.323Z,2.60
2019-02-03T03:25:12.026Z,2.50
2019-02-03T03:27:38.192Z,2.50
2019-02-03T03:30:13.835Z,2.60
2019-02-03T03:32:39.990Z,2.70
2019-02-03T03:35:06.269Z,2.40
2019-02-03T03:37:52.232Z,2.30
2019-02-03T03:40:20.540Z,2.30
2019-02-03T03:42:46.707Z,2.20
2019-02-03T03:45:13.069Z,2.30
2019-02-03T03:47:39.249Z,2.20
2019-02-03T03:50:08.518Z,2.20
2019-02-03T03:52:34.887Z,2.10
2019-02-03T03:55:01.125Z,2.10
2019-02-03T03:57:27.320Z,2.10
2019-02-03T03:59:53.481Z,2.00
2019-02-03T04:02:19.587Z,1.90
2019-02-03T04:04:45.759Z,1.90
2019-02-03T04:07:11.954Z,1.80
2019-02-03T04:09:38.444Z,1.90
2019-02-03T04:12:04.692Z,1.90
2019-02-03T04:14:30.847Z,2.00
2019-02-03T04:16:56.912Z,2.00
2019-02-03T04:19:23.003Z,1.90
2019-02-03T04:21:49.169Z,2.00
2019-02-03T04:24:15.263Z,1.90
2019-02-03T04:26:41.331Z,1.90
2019-02-03T04:29:07.420Z,1.80
2019-02-03T04:31:33.610Z,1.70
2019-02-03T04:34:00.965Z,1.80
2019-02-03T04:36:27.064Z,1.70
2019-02-03T04:38:58.467Z,1.90
2019-02-03T04:41:21.240Z,1.90
2019-02-03T04:43:47.407Z,1.90
2019-02-03T04:46:13.569Z,1.90
2019-02-03T04:48:39.618Z,1.70
2019-02-03T04:51:05.697Z,1.70
2019-02-03T04:53:31.875Z,1.70
2019-02-03T04:55:58.047Z,1.80
2019-02-03T04:58:24.148Z,1.80
2019-02-03T05:00:50.358Z,1.80
2019-02-03T05:03:16.840Z,1.90
2019-02-03T05:05:42.927Z,1.80
2019-02-03T05:08:09.000Z,1.80
2019-02-03T05:10:35.069Z,1.70
2019-02-03T05:13:01.138Z,1.70
2019-02-03T05:15:27.210Z,1.70
2019-02-03T05:17:53.406Z,1.70
2019-02-03T05:20:24.195Z,1.70
2019-02-03T05:22:50.275Z,1.60
2019-02-03T05:25:16.578Z,1.70
2019-02-03T05:27:42.851Z,1.70
2019-02-03T05:30:14.619Z,1.60
2019-02-03T05:32:41.609Z,1.70
2019-02-03T05:35:07.761Z,1.60
2019-02-03T05:37:34.152Z,1.50
2019-02-03T05:40:00.362Z,1.50
2019-02-03T05:42:26.492Z,1.50
2019-02-03T05:44:52.569Z,1.50
2019-02-03T05:47:18.743Z,1.50
2019-02-03T05:49:44.820Z,1.50
2019-02-03T05:52:10.907Z,1.40
2019-02-03T05:54:37.082Z,1.50
2019-02-03T05:57:03.356Z,1.40
2019-02-03T05:59:29.551Z,1.40
2019-02-03T06:01:55.632Z,1.30
2019-02-03T06:04:21.819Z,1.30
2019-02-03T06:06:47.999Z,1.40
2019-02-03T06:09:14.121Z,1.50
2019-02-03T06:11:40.314Z,1.50
2019-02-03T06:14:06.808Z,1.40
2019-02-03T06:16:32.876Z,1.50
2019-02-03T06:18:59.061Z,1.40
2019-02-03T06:21:25.228Z,1.40
2019-02-03T06:23:51.707Z,1.30
2019-02-03T06:26:17.784Z,1.30
2019-02-03T06:28:43.981Z,1.20
2019-02-03T06:31:13.972Z,1.30
2019-02-03T06:33:38.712Z,1.20
2019-02-03T06:36:04.995Z,1.20
2019-02-03T06:38:31.200Z,1.20
2019-02-03T06:40:57.387Z,1.10
2019-02-03T06:43:23.457Z,1.10
2019-02-03T06:45:51.539Z,1.20
2019-02-03T06:48:19.904Z,1.10
2019-02-03T06:50:46.100Z,1.10
2019-02-03T06:53:12.162Z,1.20
2019-02-03T06:55:38.264Z,1.20
2019-02-03T06:58:04.426Z,1.30
2019-02-03T07:00:30.595Z,1.30
2019-02-03T07:02:56.659Z,1.20
2019-02-03T07:05:22.793Z,1.20
2019-02-03T07:07:48.931Z,1.30
2019-02-03T07:10:15.143Z,1.30
2019-02-03T07:12:41.210Z,1.30
2019-02-03T07:15:08.995Z,1.30
2019-02-03T07:17:35.156Z,1.30
2019-02-03T07:20:01.420Z,1.20
2019-02-03T07:22:27.609Z,1.30
2019-02-03T07:24:53.972Z,1.20
2019-02-03T07:27:20.056Z,1.30
2019-02-03T07:29:46.239Z,1.30
2019-02-03T07:32:12.328Z,1.30
2019-02-03T07:34:38.487Z,1.40
2019-02-03T07:37:04.644Z,1.40
2019-02-03T07:39:30.728Z,1.30
2019-02-03T07:41:58.207Z,1.30
2019-02-03T07:44:24.269Z,1.30
2019-02-03T07:46:50.452Z,1.30
2019-02-03T07:49:16.528Z,1.30
2019-02-03T07:51:42.731Z,1.30
2019-02-03T07:54:09.012Z,1.20
2019-02-03T07:56:35.172Z,1.30
2019-02-03T07:59:01.540Z,1.30
2019-02-03T08:01:27.799Z,1.30
2019-02-03T08:03:54.096Z,1.20
2019-02-03T08:06:20.383Z,1.40
2019-02-03T08:08:46.859Z,1.30
2019-02-03T08:11:13.031Z,1.50
2019-02-03T08:13:39.231Z,1.50
2019-02-03T08:16:05.399Z,1.40
2019-02-03T08:18:31.574Z,1.50
2019-02-03T08:20:57.748Z,1.50
2019-02-03T08:23:24.016Z,1.50
2019-02-03T08:25:50.094Z,1.60
2019-02-03T08:28:16.273Z,1.60
2019-02-03T08:30:42.459Z,1.50
2019-02-03T08:33:08.661Z,1.50
2019-02-03T08:35:34.827Z,1.50
2019-02-03T08:38:01.436Z,1.40
2019-02-03T08:40:36.800Z,1.50
2019-02-03T08:42:56.132Z,1.60
2019-02-03T08:45:23.433Z,1.70
2019-02-03T08:47:50.236Z,1.60
2019-02-03T08:50:18.899Z,1.70
2019-02-03T08:52:45.087Z,1.70
2019-02-03T08:55:11.806Z,1.60
2019-02-03T08:57:37.897Z,1.60
2019-02-03T09:00:10.706Z,1.50
2019-02-03T09:02:36.811Z,1.70
2019-02-03T09:05:04.997Z,1.60
2019-02-03T09:07:31.091Z,1.60
2019-02-03T09:09:57.203Z,1.70
2019-02-03T09:12:23.404Z,1.60
2019-02-03T09:14:49.575Z,1.80
2019-02-03T09:17:15.754Z,1.70
2019-02-03T09:19:41.822Z,1.70
2019-02-03T09:22:08.271Z,1.70
2019-02-03T09:24:34.488Z,1.50
2019-02-03T09:27:00.681Z,1.50
2019-02-03T09:29:27.051Z,1.50
2019-02-03T09:31:53.144Z,1.60
2019-02-03T09:34:19.223Z,1.50
2019-02-03T09:36:45.291Z,1.50
2019-02-03T09:39:11.578Z,1.50
2019-02-03T09:41:37.658Z,1.70
2019-02-03T09:44:04.051Z,1.50
2019-02-03T09:46:30.124Z,1.30
2019-02-03T09:48:56.408Z,1.30
2019-02-03T09:51:22.474Z,1.20
2019-02-03T09:53:48.556Z,1.20
2019-02-03T09:56:14.915Z,1.30
2019-02-03T09:58:41.060Z,1.40
2019-02-03T10:01:07.239Z,1.30
2019-02-03T10:03:33.411Z,1.40
2019-02-03T10:05:59.470Z,1.50
2019-02-03T10:08:25.550Z,1.40
2019-02-03T10:10:51.823Z,1.30
2019-02-03T10:13:17.973Z,1.30
2019-02-03T10:15:44.173Z,1.30
2019-02-03T10:18:10.550Z,1.40
2019-02-03T10:20:36.725Z,1.50
2019-02-03T10:23:03.527Z,1.50
2019-02-03T10:25:29.990Z,1.50
2019-02-03T10:27:56.197Z,1.70
2019-02-03T10:30:23.265Z,1.90
2019-02-03T10:32:49.743Z,1.80
2019-02-03T10:35:23.455Z,1.90
2019-02-03T10:37:46.887Z,2.10
2019-02-03T10:40:16.285Z,2.00
2019-02-03T10:42:42.576Z,2.00
2019-02-03T10:45:14.317Z,1.90
2019-02-03T10:47:40.796Z,1.90
2019-02-03T10:50:10.702Z,2.00
2019-02-03T10:52:36.879Z,2.00
2019-02-03T10:55:06.352Z,2.00
2019-02-03T10:57:32.835Z,2.10
2019-02-03T10:59:58.999Z,2.20
2019-02-03T11:02:25.163Z,2.20
2019-02-03T11:04:51.360Z,2.40
2019-02-03T11:07:17.531Z,2.30
2019-02-03T11:09:43.618Z,2.00
2019-02-03T11:12:09.796Z,1.60
2019-02-03T11:14:35.984Z,1.40
2019-02-03T11:17:02.549Z,1.30
2019-02-03T11:19:28.723Z,1.30
2019-02-03T11:21:54.905Z,1.40
2019-02-03T11:24:21.062Z,1.30
2019-02-03T11:26:47.207Z,1.40
2019-02-03T11:29:13.391Z,1.40
2019-02-03T11:31:39.567Z,1.40
2019-02-03T11:34:05.831Z,1.60
2019-02-03T11:36:32.023Z,1.60
2019-02-03T11:38:58.489Z,1.60
2019-02-03T11:41:24.799Z,1.60
2019-02-03T11:43:51.000Z,1.60
2019-02-03T11:46:17.259Z,1.40
2019-02-03T11:48:43.513Z,1.00
2019-02-03T11:51:09.796Z,1.00
2019-02-03T11:53:35.989Z,1.00
2019-02-03T11:56:02.284Z,0.90
2019-02-03T11:58:28.974Z,0.90
2019-02-03T12:00:55.287Z,1.00
2019-02-03T12:03:21.568Z,1.10
2019-02-03T12:05:48.046Z,1.00
2019-02-03T12:08:14.160Z,0.90
2019-02-03T12:10:40.350Z,0.90
2019-02-03T12:13:09.268Z,1.00
2019-02-03T12:15:35.743Z,1.00
2019-02-03T12:18:01.936Z,0.90
2019-02-03T12:20:28.115Z,0.90
2019-02-03T12:22:54.392Z,0.90
2019-02-03T12:25:26.639Z,0.90
2019-02-03T12:27:52.806Z,0.80
2019-02-03T12:30:25.207Z,0.80
2019-02-03T12:32:51.497Z,0.70
2019-02-03T12:35:19.554Z,0.70
2019-02-03T12:37:46.085Z,0.80
2019-02-03T12:40:18.043Z,0.60
2019-02-03T12:42:44.328Z,0.60
2019-02-03T12:45:13.999Z,0.50
2019-02-03T12:47:40.292Z,0.60
2019-02-03T12:50:12.582Z,0.80
2019-02-03T12:52:38.659Z,1.10
2019-02-03T12:55:10.330Z,1.10
2019-02-03T12:57:36.433Z,1.20
2019-02-03T13:00:12.579Z,1.00
2019-02-03T13:02:38.759Z,0.90
2019-02-03T13:05:07.845Z,0.90
2019-02-03T13:07:34.027Z,0.60
2019-02-03T13:10:00.207Z,0.60
2019-02-03T13:12:27.723Z,0.70
2019-02-03T13:14:54.291Z,0.70
2019-02-03T13:17:20.463Z,0.50
2019-02-03T13:19:46.559Z,0.50
2019-02-03T13:22:12.663Z,0.30
2019-02-03T13:24:38.759Z,0.20
2019-02-03T13:27:04.925Z,0.10
2019-02-03T13:29:31.101Z,0.20
2019-02-03T13:31:57.715Z,0.20
2019-02-03T13:34:23.861Z,0.30
2019-02-03T13:36:50.027Z,0.20
2019-02-03T13:39:16.150Z,0.20
2019-02-03T13:41:42.339Z,0.20
2019-02-03T13:44:08.471Z,0.30
2019-02-03T13:46:34.672Z,0.20
2019-02-03T13:49:01.153Z,0.20
2019-02-03T13:51:27.320Z,0.30
2019-02-03T13:53:53.420Z,0.30
2019-02-03T13:56:19.642Z,0.30
2019-02-03T13:58:45.830Z,0.10
2019-02-03T14:01:11.968Z,0.00
2019-02-03T14:03:38.160Z,0.10
2019-02-03T14:06:04.674Z,0.10
2019-02-03T14:08:30.886Z,0.10
2019-02-03T14:10:57.042Z,0.00
2019-02-03T14:13:23.128Z,0.00
2019-02-03T14:15:49.246Z,0.20
2019-02-03T14:18:15.340Z,0.10
2019-02-03T14:20:41.408Z,0.20
2019-02-03T14:23:07.543Z,0.10
2019-02-03T14:25:33.836Z,0.20
2019-02-03T14:27:59.939Z,0.10
2019-02-03T14:30:40.489Z,0.00
2019-02-03T14:33:03.719Z,0.10
2019-02-03T14:35:32.773Z,0.00
2019-02-03T14:37:58.099Z,-0.10
2019-02-03T14:40:24.623Z,-0.20
2019-02-03T14:43:01.325Z,0.00
2019-02-03T14:45:26.428Z,-0.20
2019-02-03T14:47:52.728Z,-0.20
2019-02-03T14:50:20.951Z,-0.30
2019-02-03T14:52:47.539Z,-0.30
2019-02-03T14:55:29.318Z,-0.30
2019-02-03T14:57:55.564Z,-0.10
2019-02-03T15:00:30.292Z,-0.20
2019-02-03T15:02:57.243Z,-0.30
2019-02-03T15:05:23.624Z,-0.40
2019-02-03T15:07:49.824Z,-0.30
2019-02-03T15:10:16.206Z,-0.50
2019-02-03T15:12:42.349Z,-0.50
2019-02-03T15:15:12.133Z,-0.50
2019-02-03T15:17:38.195Z,-0.60
2019-02-03T15:20:08.087Z,-0.70
2019-02-03T15:22:34.177Z,-0.60
2019-02-03T15:25:00.292Z,-0.70
2019-02-03T15:27:26.363Z,-0.60
2019-02-03T15:29:52.444Z,-0.60
2019-02-03T15:32:18.540Z,-0.60
2019-02-03T15:34:44.704Z,-0.50
2019-02-03T15:37:10.766Z,-0.50
2019-02-03T15:39:36.839Z,-0.40
2019-02-03T15:42:03.431Z,-0.40
2019-02-03T15:44:29.682Z,-0.40
2019-02-03T15:46:55.849Z,-0.50
2019-02-03T15:49:21.972Z,-0.60
2019-02-03T15:51:48.167Z,-0.70
2019-02-03T15:54:14.259Z,-0.80
2019-02-03T15:56:43.936Z,-0.80
2019-02-03T15:59:10.107Z,-0.80
2019-02-03T16:01:36.420Z,-0.80
2019-02-03T16:04:02.887Z,-0.70
2019-02-03T16:06:28.979Z,-0.70
2019-02-03T16:08:55.159Z,-0.80
2019-02-03T16:11:21.332Z,-0.70
2019-02-03T16:13:47.757Z,-0.70
2019-02-03T16:16:13.935Z,-0.70
2019-02-03T16:18:40.116Z,-0.80
2019-02-03T16:21:06.200Z,-0.80
2019-02-03T16:23:32.359Z,-0.80
2019-02-03T16:25:58.436Z,-0.80
2019-02-03T16:28:24.631Z,-0.80
2019-02-03T16:30:50.725Z,-0.90
2019-02-03T16:33:16.884Z,-0.80
2019-02-03T16:35:43.097Z,-0.60
2019-02-03T16:38:22.073Z,-0.80
2019-02-03T16:40:38.239Z,-0.70
2019-02-03T16:43:04.571Z,-0.60
2019-02-03T16:45:31.372Z,-0.60
2019-02-03T16:47:59.455Z,-0.60
2019-02-03T16:50:30.444Z,-0.60
2019-02-03T16:52:58.017Z,-0.60
2019-02-03T16:55:25.187Z,-0.80
2019-02-03T16:57:51.460Z,-0.80
2019-02-03T17:00:19.903Z,-0.90
2019-02-03T17:02:46.191Z,-1.00
2019-02-03T17:05:25.378Z,-1.00
2019-02-03T17:07:43.288Z,-1.10
2019-02-03T17:10:12.405Z,-1.00
2019-02-03T17:12:38.562Z,-1.00
2019-02-03T17:15:08.529Z,-0.90
2019-02-03T17:17:34.723Z,-0.90
2019-02-03T17:20:00.899Z,-0.40
2019-02-03T17:22:27.278Z,-1.10
2019-02-03T17:24:53.440Z,-0.90
2019-02-03T17:27:19.529Z,-0.80
2019-02-03T17:29:45.690Z,-0.90
2019-02-03T17:32:11.762Z,-0.80
2019-02-03T17:34:37.841Z,-0.80
2019-02-03T17:37:04.019Z,-0.70
2019-02-03T17:39:30.115Z,-0.70
2019-02-03T17:41:56.487Z,-0.60
2019-02-03T17:44:22.773Z,-0.70
2019-02-03T17:46:48.930Z,-0.90
2019-02-03T17:49:16.763Z,-0.80
2019-02-03T17:51:42.995Z,-0.80
2019-02-03T17:54:09.178Z,-0.70
2019-02-03T17:56:35.334Z,-0.60
2019-02-03T17:59:01.833Z,-0.60
2019-02-03T18:01:27.978Z,-0.60
2019-02-03T18:03:54.048Z,-0.50
2019-02-03T18:06:20.127Z,-0.50
2019-02-03T18:08:46.219Z,-0.50
2019-02-03T18:11:12.324Z,-0.50
2019-02-03T18:13:38.506Z,-0.60
2019-02-03T18:16:04.691Z,-0.60
2019-02-03T18:18:31.056Z,-0.70
2019-02-03T18:20:57.244Z,-0.70
2019-02-03T18:23:23.339Z,-0.60
2019-02-03T18:25:49.720Z,-0.60
2019-02-03T18:28:16.598Z,-0.70
2019-02-03T18:30:42.786Z,-0.70
2019-02-03T18:33:08.848Z,-0.60
2019-02-03T18:35:35.072Z,-0.60
2019-02-03T18:38:07.087Z,-0.60
2019-02-03T18:40:33.273Z,-0.70
2019-02-03T18:43:01.975Z,-0.70
2019-02-03T18:45:27.359Z,-0.80
2019-02-03T18:47:53.522Z,-0.90
2019-02-03T18:50:23.166Z,-0.80
2019-02-03T18:52:49.747Z,-0.80
2019-02-03T18:55:18.711Z,-0.90
2019-02-03T18:57:44.803Z,-1.00
2019-02-03T19:00:20.056Z,-0.90
2019-02-03T19:02:46.252Z,-0.90
2019-02-03T19:05:15.718Z,-0.90
2019-02-03T19:07:42.102Z,-1.00
2019-02-03T19:10:14.330Z,-1.00
2019-02-03T19:12:40.500Z,-1.10
2019-02-03T19:15:08.783Z,-1.10
2019-02-03T19:17:34.867Z,-1.00
2019-02-03T19:20:00.945Z,-1.10
2019-02-03T19:22:27.007Z,-1.10
2019-02-03T19:24:53.220Z,-1.00
2019-02-03T19:27:19.363Z,-1.10
2019-02-03T19:29:45.432Z,-1.00
2019-02-03T19:32:11.611Z,-0.90
2019-02-03T19:34:37.675Z,-0.90
2019-02-03T19:37:05.670Z,-0.80
2019-02-03T19:39:31.935Z,-0.90
2019-02-03T19:41:58.248Z,-0.90
2019-02-03T19:44:24.380Z,-0.90
2019-02-03T19:46:50.591Z,-0.90
2019-02-03T19:49:16.735Z,-0.80
2019-02-03T19:51:42.867Z,-0.80
2019-02-03T19:54:09.056Z,-0.80
2019-02-03T19:56:35.236Z,-0.90
2019-02-03T19:59:01.328Z,-0.90
2019-02-03T20:01:27.616Z,-0.90
2019-02-03T20:03:53.707Z,-0.90
2019-02-03T20:06:19.876Z,-0.90
2019-02-03T20:08:45.977Z,-0.80
2019-02-03T20:11:12.143Z,-0.80
2019-02-03T20:13:38.276Z,-0.80
2019-02-03T20:16:04.462Z,-0.40
2019-02-03T20:18:31.059Z,-0.70
2019-02-03T20:20:57.241Z,-0.80
2019-02-03T20:23:23.321Z,-0.90
2019-02-03T20:25:49.526Z,-1.20
2019-02-03T20:28:15.738Z,-0.90
2019-02-03T20:30:41.832Z,-0.70
2019-02-03T20:33:08.078Z,-0.80
2019-02-03T20:35:34.587Z,-0.60
2019-02-03T20:38:01.041Z,-0.60
2019-02-03T20:40:30.532Z,-0.70
2019-02-03T20:42:56.801Z,-0.60
2019-02-03T20:45:23.073Z,-0.70
2019-02-03T20:47:49.271Z,-0.70
2019-02-03T20:50:17.372Z,-0.80
2019-02-03T20:52:43.626Z,-0.70
2019-02-03T20:55:12.296Z,-0.70
2019-02-03T20:57:38.392Z,-0.70
2019-02-03T21:00:11.434Z,-0.60
2019-02-03T21:02:37.626Z,-0.60
2019-02-03T21:05:05.591Z,-0.60
2019-02-03T21:07:31.677Z,-0.70
2019-02-03T21:09:57.740Z,-0.70
2019-02-03T21:12:24.237Z,-0.60
2019-02-03T21:14:50.303Z,-0.60
2019-02-03T21:17:16.407Z,-0.70
2019-02-03T21:19:42.487Z,-0.60
2019-02-03T21:22:08.643Z,-0.70
2019-02-03T21:24:34.735Z,-0.60
2019-02-03T21:27:00.821Z,-0.60
2019-02-03T21:29:26.901Z,-0.70
2019-02-03T21:31:53.244Z,-0.70
2019-02-03T21:34:19.303Z,-0.70
2019-02-03T21:36:45.379Z,-0.80
2019-02-03T21:39:11.454Z,-0.90
2019-02-03T21:41:37.639Z,-0.70
2019-02-03T21:44:03.731Z,-0.60
2019-02-03T21:46:29.909Z,-0.70
2019-02-03T21:48:56.497Z,-0.60
2019-02-03T21:51:22.656Z,-0.60
2019-02-03T21:53:48.743Z,-0.70
2019-02-03T21:56:14.803Z,-0.80
2019-02-03T21:58:40.975Z,-0.80
2019-02-03T22:01:07.054Z,-0.70
2019-02-03T22:03:33.120Z,-0.70
2019-02-03T22:05:59.185Z,-0.70
2019-02-03T22:08:25.672Z,-0.60
2019-02-03T22:10:51.850Z,-0.50
2019-02-03T22:13:18.139Z,-0.60
2019-02-03T22:15:55.048Z,-0.50
2019-02-03T22:18:12.189Z,-0.60
2019-02-03T22:20:38.371Z,-0.60
2019-02-03T22:23:04.430Z,-0.50
2019-02-03T22:25:30.924Z,-0.40
2019-02-03T22:27:57.092Z,-0.30
2019-02-03T22:30:29.420Z,-0.40
2019-02-03T22:32:55.587Z,-0.50
2019-02-03T22:35:21.807Z,-0.50
2019-02-03T22:37:48.140Z,-0.50
2019-02-03T22:40:19.402Z,-0.50
2019-02-03T22:42:45.465Z,-0.60
2019-02-03T22:45:19.899Z,-0.50
2019-02-03T22:47:46.292Z,-0.50
2019-02-03T22:50:18.607Z,-0.40
2019-02-03T22:52:44.687Z,-0.40
2019-02-03T22:55:12.351Z,-0.40
2019-02-03T22:57:38.439Z,-0.40
2019-02-03T23:00:52.717Z,-0.40
2019-02-03T23:03:24.516Z,-0.40
2019-02-03T23:05:52.206Z,-0.60
2019-02-03T23:08:18.386Z,-0.60
2019-02-03T23:10:44.583Z,-0.60
2019-02-03T23:13:10.775Z,-0.70
2019-02-03T23:15:37.430Z,-0.60
2019-02-03T23:18:04.128Z,-0.60
2019-02-03T23:20:30.383Z,-0.60
2019-02-03T23:22:56.481Z,-0.40
2019-02-03T23:25:22.560Z,-0.40
2019-02-03T23:27:48.640Z,-0.40
2019-02-03T23:30:15.833Z,-0.50
2019-02-03T23:32:42.111Z,-0.50
2019-02-03T23:35:08.303Z,-0.50
2019-02-03T23:37:34.477Z,-0.50
2019-02-03T23:40:00.543Z,-0.40
2019-02-03T23:42:26.634Z,-0.50
2019-02-03T23:44:52.802Z,-0.60
2019-02-03T23:47:18.885Z,-0.60
2019-02-03T23:49:44.943Z,-0.50
2019-02-03T23:52:11.123Z,-0.40
2019-02-03T23:54:37.300Z,-0.50
2019-02-03T23:57:03.696Z,-0.40
2019-02-03T23:59:29.872Z,-0.30
